createdAt,value
2019-05-10T00:01:26.777Z,55.23
2019-05-10T00:03:21.520Z,59.57
2019-05-10T00:05:15.885Z,57.70
2019-05-10T00:07:11.008Z,56.10
2019-05-10T00:08:47.023Z,56.80
2019-05-10T00:10:22.782Z,63.97
2019-05-10T00:12:14.166Z,57.17
2019-05-10T00:13:58.629Z,59.33
2019-05-10T00:15:36.411Z,58.43
2019-05-10T00:17:15.435Z,59.20
2019-05-10T00:18:52.016Z,60.73
2019-05-10T00:20:29.344Z,61.57
2019-05-10T00:22:09.388Z,59.03
2019-05-10T00:23:46.396Z,59.13
2019-05-10T00:25:22.937Z,60.67
2019-05-10T00:27:00.038Z,61.00
2019-05-10T00:28:37.159Z,62.47
2019-05-10T00:30:14.268Z,60.43
2019-05-10T00:31:50.265Z,63.70
2019-05-10T00:33:27.114Z,62.20
2019-05-10T00:35:04.965Z,65.43
2019-05-10T00:36:42.056Z,64.00
2019-05-10T00:38:19.391Z,65.90
2019-05-10T00:39:56.479Z,61.67
2019-05-10T00:41:32.942Z,62.27
2019-05-10T00:43:09.945Z,66.30
2019-05-10T00:44:46.822Z,73.50
2019-05-10T00:46:23.619Z,70.87
2019-05-10T00:48:01.167Z,72.43
2019-05-10T00:49:38.082Z,69.93
2019-05-10T00:51:14.975Z,65.83
2019-05-10T00:52:51.789Z,71.20
2019-05-10T00:54:28.154Z,72.30
2019-05-10T00:56:05.353Z,77.80
2019-05-10T00:57:42.024Z,65.50
2019-05-10T00:59:18.909Z,67.70
2019-05-10T01:00:55.260Z,71.77
2019-05-10T01:02:32.384Z,71.77
2019-05-10T01:04:09.334Z,72.10
2019-05-10T01:05:46.451Z,85.50
2019-05-10T01:07:23.327Z,78.00
2019-05-10T01:09:00.535Z,74.30
2019-05-10T01:10:37.463Z,72.63
2019-05-10T01:12:14.659Z,74.33
2019-05-10T01:13:51.289Z,72.80
2019-05-10T01:15:27.979Z,73.10
2019-05-10T01:17:06.684Z,75.83
2019-05-10T01:18:43.534Z,86.37
2019-05-10T01:20:20.273Z,79.13
2019-05-10T01:21:57.285Z,90.90
2019-05-10T01:23:34.073Z,88.67
2019-05-10T01:25:11.258Z,82.37
2019-05-10T01:26:48.123Z,83.93
2019-05-10T01:28:24.672Z,87.30
2019-05-10T01:30:01.705Z,81.97
2019-05-10T01:31:38.543Z,87.50
2019-05-10T01:33:14.849Z,102.50
2019-05-10T01:34:51.465Z,91.57
2019-05-10T01:36:28.170Z,78.87
2019-05-10T01:38:05.162Z,83.70
2019-05-10T01:39:41.832Z,97.30
2019-05-10T01:41:18.886Z,97.67
2019-05-10T01:42:55.680Z,77.07
2019-05-10T01:44:32.640Z,94.63
2019-05-10T01:46:09.472Z,87.93
2019-05-10T01:47:46.491Z,77.17
2019-05-10T01:49:23.185Z,80.40
2019-05-10T01:51:00.258Z,83.47
2019-05-10T01:52:37.027Z,78.43
2019-05-10T01:54:13.816Z,102.87
2019-05-10T01:55:52.483Z,85.53
2019-05-10T01:57:28.906Z,92.30
2019-05-10T01:59:05.908Z,87.63
2019-05-10T02:00:43.079Z,81.90
2019-05-10T02:02:27.153Z,90.57
2019-05-10T02:04:04.837Z,99.03
2019-05-10T02:05:41.741Z,88.67
2019-05-10T02:07:18.884Z,101.70
2019-05-10T02:08:55.565Z,103.17
2019-05-10T02:10:32.583Z,85.40
2019-05-10T02:12:09.326Z,78.90
2019-05-10T02:13:46.456Z,76.83
2019-05-10T02:15:23.212Z,80.20
2019-05-10T02:17:00.464Z,76.83
2019-05-10T02:18:37.225Z,80.50
2019-05-10T02:20:14.915Z,78.13
2019-05-10T02:21:51.873Z,77.53
2019-05-10T02:23:28.877Z,79.17
2019-05-10T02:25:07.491Z,81.67
2019-05-10T02:26:44.337Z,81.10
2019-05-10T02:28:20.723Z,89.13
2019-05-10T02:29:57.676Z,83.97
2019-05-10T02:31:34.485Z,85.50
2019-05-10T02:33:11.076Z,89.90
2019-05-10T02:34:47.914Z,97.13
2019-05-10T02:36:25.046Z,96.97
2019-05-10T02:38:01.818Z,88.03
2019-05-10T02:39:38.847Z,148.63
2019-05-10T02:41:15.657Z,132.00
2019-05-10T02:42:52.935Z,132.60
2019-05-10T02:44:29.932Z,115.60
2019-05-10T02:46:07.219Z,101.13
2019-05-10T02:47:44.071Z,102.07
2019-05-10T02:49:20.841Z,101.90
2019-05-10T02:50:58.289Z,129.67
2019-05-10T02:52:34.984Z,100.03
2019-05-10T02:54:12.384Z,100.83
2019-05-10T02:55:52.269Z,86.67
2019-05-10T02:57:28.980Z,86.63
2019-05-10T02:59:06.382Z,85.90
2019-05-10T03:00:46.819Z,91.37
2019-05-10T03:02:25.408Z,97.67
2019-05-10T03:04:03.422Z,109.53
2019-05-10T03:05:48.182Z,124.30
2019-05-10T03:07:26.403Z,123.90
2019-05-10T03:09:07.636Z,119.33
2019-05-10T03:10:56.192Z,98.10
2019-05-10T03:12:34.660Z,94.27
2019-05-10T03:14:14.475Z,113.17
2019-05-10T03:15:56.260Z,97.83
2019-05-10T03:17:33.014Z,105.97
2019-05-10T03:19:13.021Z,146.30
2019-05-10T03:20:51.836Z,141.30
2019-05-10T03:22:28.848Z,111.47
2019-05-10T03:24:05.680Z,104.37
2019-05-10T03:25:42.765Z,105.53
2019-05-10T03:27:19.484Z,113.73
2019-05-10T03:28:56.426Z,93.83
2019-05-10T03:30:33.534Z,121.90
2019-05-10T03:32:10.639Z,107.27
2019-05-10T03:33:54.901Z,106.37
2019-05-10T03:35:26.188Z,127.33
2019-05-10T03:37:03.214Z,104.67
2019-05-10T03:38:40.505Z,98.83
2019-05-10T03:40:17.623Z,116.00
2019-05-10T03:41:54.615Z,143.97
2019-05-10T03:43:31.352Z,108.60
2019-05-10T03:45:09.450Z,100.93
2019-05-10T03:46:46.143Z,106.10
2019-05-10T03:48:23.254Z,118.63
2019-05-10T03:49:59.091Z,122.60
2019-05-10T03:51:36.120Z,177.33
2019-05-10T03:53:12.898Z,188.10
2019-05-10T03:54:50.593Z,153.40
2019-05-10T03:56:29.812Z,152.10
2019-05-10T03:58:05.917Z,159.07
2019-05-10T03:59:42.291Z,174.97
2019-05-10T04:01:20.412Z,125.37
2019-05-10T04:02:57.245Z,130.37
2019-05-10T04:04:33.985Z,166.53
2019-05-10T04:06:10.364Z,123.60
2019-05-10T04:07:47.200Z,158.20
2019-05-10T04:09:24.061Z,148.87
2019-05-10T04:11:01.248Z,114.70
2019-05-10T04:12:38.171Z,149.30
2019-05-10T04:14:15.062Z,108.77
2019-05-10T04:15:53.186Z,111.47
2019-05-10T04:17:30.218Z,102.20
2019-05-10T04:19:06.996Z,107.87
2019-05-10T04:20:43.730Z,127.03
2019-05-10T04:22:20.479Z,101.77
2019-05-10T04:23:57.471Z,144.37
2019-05-10T04:25:34.287Z,121.70
2019-05-10T04:27:30.256Z,136.10
2019-05-10T04:28:50.138Z,100.37
2019-05-10T04:30:31.522Z,104.93
2019-05-10T04:32:05.721Z,92.37
2019-05-10T04:33:42.745Z,93.90
2019-05-10T04:35:18.688Z,129.97
2019-05-10T04:36:55.759Z,111.13
2019-05-10T04:38:32.948Z,139.70
2019-05-10T04:40:11.571Z,111.40
2019-05-10T04:41:48.321Z,94.83
2019-05-10T04:43:25.454Z,106.57
2019-05-10T04:45:02.228Z,128.50
2019-05-10T04:46:39.289Z,126.63
2019-05-10T04:48:16.067Z,108.83
2019-05-10T04:49:53.141Z,106.73
2019-05-10T04:51:29.936Z,128.27
2019-05-10T04:53:06.875Z,100.67
2019-05-10T04:54:43.605Z,94.53
2019-05-10T04:56:20.416Z,111.00
2019-05-10T04:57:56.947Z,91.43
2019-05-10T04:59:33.792Z,89.57
2019-05-10T05:01:10.167Z,104.43
2019-05-10T05:02:46.818Z,98.70
2019-05-10T05:04:23.636Z,101.13
2019-05-10T05:06:00.754Z,93.23
2019-05-10T05:07:37.295Z,100.30
2019-05-10T05:09:14.269Z,98.37
2019-05-10T05:10:50.887Z,89.83
2019-05-10T05:12:27.704Z,101.77
2019-05-10T05:14:04.717Z,96.03
2019-05-10T05:15:41.711Z,103.77
2019-05-10T05:17:18.197Z,93.73
2019-05-10T05:18:55.248Z,94.27
2019-05-10T05:20:32.091Z,89.30
2019-05-10T05:22:08.722Z,80.47
2019-05-10T05:23:46.917Z,77.50
2019-05-10T05:25:23.808Z,78.20
2019-05-10T05:27:00.880Z,74.47
2019-05-10T05:28:37.456Z,73.97
2019-05-10T05:30:14.800Z,71.87
2019-05-10T05:31:53.986Z,74.60
2019-05-10T05:33:30.399Z,75.37
2019-05-10T05:35:08.214Z,78.60
2019-05-10T05:36:44.900Z,79.60
2019-05-10T05:38:21.590Z,76.70
2019-05-10T05:39:58.790Z,82.10
2019-05-10T05:41:48.247Z,81.47
2019-05-10T05:43:14.568Z,82.90
2019-05-10T05:44:51.152Z,76.90
2019-05-10T05:46:28.857Z,78.07
2019-05-10T05:48:05.654Z,82.80
2019-05-10T05:49:42.398Z,81.30
2019-05-10T05:51:19.245Z,85.07
2019-05-10T05:52:56.224Z,90.83
2019-05-10T05:54:33.364Z,81.30
2019-05-10T05:56:13.080Z,80.03
2019-05-10T05:57:48.803Z,76.47
2019-05-10T05:59:26.262Z,74.13
2019-05-10T06:01:03.332Z,75.93
2019-05-10T06:02:45.277Z,75.27
2019-05-10T06:04:18.784Z,72.93
2019-05-10T06:05:55.907Z,72.40
2019-05-10T06:07:38.096Z,76.07
2019-05-10T06:09:11.803Z,80.07
2019-05-10T06:10:56.827Z,73.00
2019-05-10T06:12:26.760Z,72.47
2019-05-10T06:14:10.738Z,74.90
2019-05-10T06:15:42.992Z,73.57
2019-05-10T06:17:23.701Z,71.53
2019-05-10T06:18:59.236Z,70.53
2019-05-10T06:20:38.261Z,61.97
2019-05-10T06:22:15.562Z,55.53
2019-05-10T06:23:52.309Z,52.00
2019-05-10T06:25:39.567Z,49.77
2019-05-10T06:27:07.544Z,45.93
2019-05-10T06:28:58.610Z,46.07
2019-05-10T06:30:23.608Z,47.30
2019-05-10T06:32:00.857Z,50.03
2019-05-10T06:33:39.748Z,54.60
2019-05-10T06:35:19.389Z,56.20
2019-05-10T06:36:54.979Z,55.67
2019-05-10T06:38:32.164Z,58.07
2019-05-10T06:40:09.067Z,60.07
2019-05-10T06:41:50.051Z,60.73
2019-05-10T06:43:24.760Z,58.60
2019-05-10T06:45:04.898Z,55.23
2019-05-10T06:46:40.596Z,54.30
2019-05-10T06:48:26.039Z,52.23
2019-05-10T06:49:55.871Z,47.03
2019-05-10T06:51:32.850Z,53.50
2019-05-10T06:53:11.039Z,47.40
2019-05-10T06:54:47.788Z,46.93
2019-05-10T06:56:24.692Z,51.37
2019-05-10T06:58:01.866Z,52.30
2019-05-10T06:59:38.664Z,53.63
2019-05-10T07:01:15.237Z,49.70
2019-05-10T07:02:52.133Z,49.30
2019-05-10T07:04:28.588Z,47.37
2019-05-10T07:06:05.628Z,47.33
2019-05-10T07:07:45.228Z,49.80
2019-05-10T07:09:22.120Z,44.93
2019-05-10T07:10:59.166Z,44.57
2019-05-10T07:12:37.371Z,47.00
2019-05-10T07:14:14.590Z,45.70
2019-05-10T07:15:51.614Z,48.10
2019-05-10T07:17:28.585Z,50.00
2019-05-10T07:19:05.599Z,48.40
2019-05-10T07:20:43.419Z,48.50
2019-05-10T07:22:21.764Z,45.60
2019-05-10T07:23:59.408Z,49.90
2019-05-10T07:25:37.928Z,48.07
2019-05-10T07:27:15.343Z,45.30
2019-05-10T07:28:57.002Z,44.63
2019-05-10T07:30:41.536Z,43.13
2019-05-10T07:32:22.118Z,39.23
2019-05-10T07:33:55.435Z,41.13
2019-05-10T07:35:36.817Z,42.03
2019-05-10T07:37:11.424Z,41.80
2019-05-10T07:38:48.313Z,44.30
2019-05-10T07:40:25.478Z,38.93
2019-05-10T07:42:06.502Z,40.70
2019-05-10T07:43:41.359Z,38.30
2019-05-10T07:45:18.661Z,38.67
2019-05-10T07:46:58.652Z,34.73
2019-05-10T07:48:35.657Z,36.80
2019-05-10T07:50:12.752Z,36.10
2019-05-10T07:51:49.655Z,35.00
2019-05-10T07:53:26.484Z,31.60
2019-05-10T07:55:03.798Z,34.50
2019-05-10T07:56:45.659Z,34.83
2019-05-10T07:58:19.584Z,38.97
2019-05-10T07:59:57.473Z,38.33
2019-05-10T08:01:35.107Z,39.07
2019-05-10T08:03:16.853Z,37.07
2019-05-10T08:04:53.639Z,34.83
2019-05-10T08:06:31.959Z,32.57
2019-05-10T08:08:09.658Z,36.73
2019-05-10T08:09:48.791Z,37.50
2019-05-10T08:11:25.269Z,37.13
2019-05-10T08:13:03.498Z,36.03
2019-05-10T08:14:44.478Z,34.77
2019-05-10T08:16:22.739Z,36.93
2019-05-10T08:17:58.573Z,38.87
2019-05-10T08:19:37.769Z,37.67
2019-05-10T08:21:21.943Z,35.00
2019-05-10T08:22:52.644Z,32.00
2019-05-10T08:24:29.579Z,33.53
2019-05-10T08:26:10.998Z,33.90
2019-05-10T08:27:50.513Z,34.17
2019-05-10T08:29:25.240Z,31.60
2019-05-10T08:31:02.605Z,28.73
2019-05-10T08:32:42.504Z,30.37
2019-05-10T08:34:18.866Z,27.93
2019-05-10T08:36:00.756Z,29.03
2019-05-10T08:37:37.730Z,27.43
2019-05-10T08:39:14.028Z,28.07
2019-05-10T08:40:52.779Z,29.47
2019-05-10T08:42:43.892Z,29.83
2019-05-10T08:44:16.659Z,30.70
2019-05-10T08:45:49.366Z,23.50
2019-05-10T08:47:27.860Z,21.83
2019-05-10T08:49:04.976Z,24.23
2019-05-10T08:50:52.329Z,23.53
2019-05-10T08:52:26.852Z,22.00
2019-05-10T08:54:01.782Z,22.63
2019-05-10T08:55:38.780Z,25.00
2019-05-10T08:57:18.617Z,25.63
2019-05-10T08:58:54.763Z,21.63
2019-05-10T09:00:45.605Z,20.93
2019-05-10T09:02:12.609Z,20.07
2019-05-10T09:03:55.039Z,20.53
2019-05-10T09:05:31.195Z,21.13
2019-05-10T09:07:08.401Z,21.60
2019-05-10T09:08:45.053Z,21.17
2019-05-10T09:10:22.169Z,21.60
2019-05-10T09:12:04.339Z,24.10
2019-05-10T09:13:41.472Z,25.37
2019-05-10T09:15:17.027Z,21.73
2019-05-10T09:17:00.814Z,23.87
2019-05-10T09:18:33.184Z,20.70
2019-05-10T09:20:20.670Z,21.97
2019-05-10T09:21:54.814Z,22.67
2019-05-10T09:23:29.613Z,22.77
2019-05-10T09:25:08.228Z,21.70
2019-05-10T09:26:46.994Z,21.07
2019-05-10T09:28:23.305Z,22.00
2019-05-10T09:30:02.949Z,22.60
2019-05-10T09:31:44.524Z,22.30
2019-05-10T09:33:17.935Z,22.37
2019-05-10T09:34:59.700Z,20.43
2019-05-10T09:36:36.187Z,19.53
2019-05-10T09:38:12.710Z,19.27
2019-05-10T09:39:55.456Z,19.30
2019-05-10T09:41:36.016Z,20.50
2019-05-10T09:43:09.883Z,21.07
2019-05-10T09:44:46.692Z,20.10
2019-05-10T09:46:23.970Z,21.40
2019-05-10T09:48:02.496Z,21.33
2019-05-10T09:49:45.167Z,20.30
2019-05-10T09:51:19.127Z,20.37
2019-05-10T09:52:57.439Z,18.90
2019-05-10T09:54:35.129Z,19.10
2019-05-10T09:56:12.233Z,20.30
2019-05-10T09:57:49.258Z,19.80
2019-05-10T09:59:27.803Z,18.87
2019-05-10T10:01:14.721Z,20.10
2019-05-10T10:02:47.887Z,20.43
2019-05-10T10:04:22.565Z,20.23
2019-05-10T10:06:05.130Z,19.67
2019-05-10T10:07:38.207Z,17.20
2019-05-10T10:09:17.191Z,16.00
2019-05-10T10:10:53.048Z,15.73
2019-05-10T10:12:30.352Z,15.40
2019-05-10T10:14:07.617Z,17.87
2019-05-10T10:15:49.842Z,18.10
2019-05-10T10:17:24.549Z,18.40
2019-05-10T10:19:01.416Z,18.37
2019-05-10T10:20:43.380Z,17.43
2019-05-10T10:22:19.863Z,16.77
2019-05-10T10:24:00.050Z,17.00
2019-05-10T10:25:35.338Z,17.73
2019-05-10T10:27:13.067Z,17.40
2019-05-10T10:28:55.102Z,18.53
2019-05-10T10:30:31.275Z,17.13
2019-05-10T10:32:07.942Z,17.03
2019-05-10T10:33:56.982Z,18.07
2019-05-10T10:35:26.870Z,16.70
2019-05-10T10:37:01.344Z,17.43
2019-05-10T10:38:45.478Z,15.97
2019-05-10T10:40:18.335Z,15.97
2019-05-10T10:41:56.921Z,16.07
2019-05-10T10:43:32.925Z,17.30
2019-05-10T10:45:11.778Z,17.77
2019-05-10T10:46:48.309Z,17.90
2019-05-10T10:48:24.880Z,17.07
2019-05-10T10:50:07.554Z,14.77
2019-05-10T10:51:39.638Z,13.07
2019-05-10T10:53:17.956Z,12.87
2019-05-10T10:54:54.670Z,14.43
2019-05-10T10:56:31.516Z,15.23
2019-05-10T10:58:09.167Z,14.40
2019-05-10T10:59:47.496Z,15.57
2019-05-10T11:01:28.515Z,15.50
2019-05-10T11:03:05.537Z,14.80
2019-05-10T11:04:46.711Z,14.90
2019-05-10T11:06:20.696Z,14.37
2019-05-10T11:07:57.341Z,13.17
2019-05-10T11:09:37.816Z,13.40
2019-05-10T11:11:14.553Z,13.80
2019-05-10T11:12:51.373Z,12.80
2019-05-10T11:14:34.041Z,13.87
2019-05-10T11:16:12.661Z,12.87
2019-05-10T11:17:44.924Z,11.60
2019-05-10T11:19:21.644Z,11.67
2019-05-10T11:20:58.277Z,11.53
2019-05-10T11:22:34.876Z,13.30
2019-05-10T11:24:18.076Z,12.57
2019-05-10T11:25:56.298Z,12.27
2019-05-10T11:27:30.808Z,10.50
2019-05-10T11:29:06.984Z,10.73
2019-05-10T11:30:43.673Z,11.50
2019-05-10T11:32:21.310Z,11.40
2019-05-10T11:33:59.208Z,12.03
2019-05-10T11:35:36.084Z,9.73
2019-05-10T11:37:14.773Z,8.47
2019-05-10T11:38:56.882Z,6.83
2019-05-10T11:40:34.409Z,7.77
2019-05-10T11:42:07.929Z,9.10
2019-05-10T11:43:44.487Z,7.90
2019-05-10T11:45:26.132Z,7.70
2019-05-10T11:47:01.528Z,7.10
2019-05-10T11:48:39.824Z,6.60
2019-05-10T11:50:28.782Z,6.70
2019-05-10T11:51:58.718Z,7.53
2019-05-10T11:53:34.530Z,7.27
2019-05-10T11:55:12.398Z,8.50
2019-05-10T11:56:48.880Z,8.30
2019-05-10T11:58:25.530Z,6.97
2019-05-10T12:00:02.330Z,7.83
2019-05-10T12:01:41.670Z,7.50
2019-05-10T12:03:22.375Z,6.47
2019-05-10T12:04:54.844Z,7.90
2019-05-10T12:06:32.460Z,7.70
2019-05-10T12:08:12.670Z,7.17
2019-05-10T12:09:53.465Z,6.43
2019-05-10T12:11:33.147Z,6.87
2019-05-10T12:13:15.084Z,6.90
2019-05-10T12:14:46.546Z,6.80
2019-05-10T12:16:21.676Z,6.20
2019-05-10T12:17:59.758Z,6.40
2019-05-10T12:19:45.457Z,7.53
2019-05-10T12:21:16.272Z,6.93
2019-05-10T12:22:53.236Z,6.30
2019-05-10T12:24:46.247Z,6.20
2019-05-10T12:27:13.898Z,6.40
2019-05-10T12:27:51.449Z,6.60
2019-05-10T12:29:25.900Z,6.47
2019-05-10T12:31:07.470Z,6.20
2019-05-10T12:32:55.044Z,5.40
2019-05-10T12:34:20.827Z,5.77
2019-05-10T12:35:57.917Z,5.87
2019-05-10T12:37:39.699Z,6.20
2019-05-10T12:39:13.102Z,5.70
2019-05-10T12:40:51.349Z,6.27
2019-05-10T12:42:28.523Z,6.33
2019-05-10T12:44:07.469Z,6.13
2019-05-10T12:45:44.609Z,6.63
2019-05-10T12:47:21.577Z,6.10
2019-05-10T12:48:58.156Z,5.80
2019-05-10T12:50:34.766Z,14.03
2019-05-10T12:52:14.356Z,6.70
2019-05-10T12:53:52.105Z,6.00
2019-05-10T12:55:28.697Z,6.27
2019-05-10T12:57:05.874Z,6.10
2019-05-10T12:58:42.887Z,5.70
2019-05-10T13:00:20.170Z,6.43
2019-05-10T13:01:58.393Z,6.40
2019-05-10T13:03:35.649Z,6.40
2019-05-10T13:05:15.473Z,5.67
2019-05-10T13:06:51.342Z,6.27
2019-05-10T13:08:27.897Z,6.50
2019-05-10T13:10:09.736Z,6.63
2019-05-10T13:11:46.893Z,5.53
2019-05-10T13:13:27.124Z,5.70
2019-05-10T13:15:02.234Z,5.70
2019-05-10T13:16:38.877Z,5.47
2019-05-10T13:18:16.001Z,5.53
2019-05-10T13:19:58.259Z,5.40
2019-05-10T13:21:31.512Z,5.87
2019-05-10T13:23:10.089Z,6.27
2019-05-10T13:24:46.871Z,6.37
2019-05-10T13:26:23.964Z,5.87
2019-05-10T13:28:01.054Z,5.67
2019-05-10T13:29:40.653Z,5.60
2019-05-10T13:31:16.665Z,6.47
2019-05-10T13:32:59.099Z,6.93
2019-05-10T13:34:32.335Z,5.90
2019-05-10T13:36:09.380Z,5.57
2019-05-10T13:37:46.344Z,6.37
2019-05-10T13:39:25.537Z,6.40
2019-05-10T13:41:01.903Z,6.13
2019-05-10T13:42:43.504Z,6.10
2019-05-10T13:44:18.063Z,6.30
2019-05-10T13:45:55.883Z,6.13
2019-05-10T13:47:32.615Z,6.30
2019-05-10T13:49:09.475Z,6.63
2019-05-10T13:50:46.299Z,6.40
2019-05-10T13:52:29.918Z,6.13
2019-05-10T13:54:05.174Z,6.80
2019-05-10T13:55:41.046Z,5.80
2019-05-10T13:57:18.139Z,6.20
2019-05-10T13:58:55.200Z,6.57
2019-05-10T14:00:34.468Z,6.50
2019-05-10T14:02:11.405Z,6.37
2019-05-10T14:03:53.845Z,5.90
2019-05-10T14:05:26.536Z,6.30
2019-05-10T14:07:03.494Z,5.70
2019-05-10T14:08:42.955Z,5.47
2019-05-10T14:10:23.299Z,6.93
2019-05-10T14:11:57.546Z,8.00
2019-05-10T14:13:35.704Z,7.70
2019-05-10T14:15:13.863Z,7.40
2019-05-10T14:16:50.496Z,8.07
2019-05-10T14:18:27.417Z,7.20
2019-05-10T14:20:06.044Z,7.47
2019-05-10T14:21:43.006Z,6.73
2019-05-10T14:23:19.810Z,5.93
2019-05-10T14:24:59.155Z,6.43
2019-05-10T14:26:35.579Z,6.83
2019-05-10T14:28:15.602Z,6.33
2019-05-10T14:29:51.090Z,6.70
2019-05-10T14:31:28.041Z,6.93
2019-05-10T14:33:08.849Z,6.17
2019-05-10T14:34:44.590Z,6.00
2019-05-10T14:36:22.685Z,6.13
2019-05-10T14:38:08.209Z,5.60
2019-05-10T14:39:38.204Z,6.20
2019-05-10T14:41:15.116Z,6.00
2019-05-10T14:42:51.875Z,5.93
2019-05-10T14:44:28.616Z,6.13
2019-05-10T14:46:13.287Z,6.27
2019-05-10T14:47:47.949Z,6.17
2019-05-10T14:49:23.120Z,6.50
2019-05-10T14:51:03.275Z,6.83
2019-05-10T14:52:38.992Z,6.57
2019-05-10T14:54:15.654Z,6.60
2019-05-10T14:55:52.492Z,6.30
2019-05-10T14:57:29.511Z,7.03
2019-05-10T14:59:06.803Z,6.70
2019-05-10T15:00:43.828Z,6.47
2019-05-10T15:02:22.950Z,6.60
2019-05-10T15:03:59.026Z,7.30
2019-05-10T15:05:36.724Z,6.80
2019-05-10T15:07:14.466Z,6.80
2019-05-10T15:08:53.185Z,7.07
2019-05-10T15:10:33.008Z,6.30
2019-05-10T15:12:10.312Z,5.93
2019-05-10T15:13:47.044Z,6.97
2019-05-10T15:15:23.989Z,6.33
2019-05-10T15:17:01.102Z,6.37
2019-05-10T15:18:37.611Z,6.93
2019-05-10T15:20:14.989Z,6.90
2019-05-10T15:21:52.136Z,6.87
2019-05-10T15:23:29.283Z,6.47
2019-05-10T15:25:07.748Z,6.40
2019-05-10T15:26:46.164Z,6.03
2019-05-10T15:28:23.074Z,6.30
2019-05-10T15:30:05.199Z,6.30
2019-05-10T15:31:38.675Z,5.63
2019-05-10T15:33:15.392Z,5.43
2019-05-10T15:35:05.484Z,6.33
2019-05-10T15:36:31.772Z,5.73
2019-05-10T15:38:09.449Z,9.33
2019-05-10T15:39:46.333Z,50.03
2019-05-10T15:41:24.051Z,32.33
2019-05-10T15:43:03.100Z,11.40
2019-05-10T15:44:39.954Z,10.37
2019-05-10T15:46:16.750Z,13.10
2019-05-10T15:47:57.584Z,14.63
2019-05-10T15:49:32.523Z,11.47
2019-05-10T15:51:11.046Z,10.33
2019-05-10T15:52:48.816Z,8.70
2019-05-10T15:54:25.788Z,8.17
2019-05-10T15:56:04.045Z,8.83
2019-05-10T15:57:42.440Z,8.97
2019-05-10T15:59:21.250Z,8.03
2019-05-10T16:00:57.910Z,9.97
2019-05-10T16:02:35.005Z,12.57
2019-05-10T16:04:12.211Z,9.27
2019-05-10T16:06:00.514Z,9.00
2019-05-10T16:07:27.738Z,8.90
2019-05-10T16:09:17.152Z,8.70
2019-05-10T16:10:46.306Z,8.03
2019-05-10T16:12:23.435Z,7.30
2019-05-10T16:14:01.752Z,7.63
2019-05-10T16:15:38.874Z,6.90
2019-05-10T16:17:17.609Z,7.10
2019-05-10T16:18:53.241Z,6.00
2019-05-10T16:20:31.698Z,5.90
2019-05-10T16:22:08.522Z,6.23
2019-05-10T16:23:46.660Z,6.23
2019-05-10T16:25:24.420Z,6.23
2019-05-10T16:27:01.937Z,6.77
2019-05-10T16:28:39.768Z,6.63
2019-05-10T16:30:20.142Z,6.03
2019-05-10T16:31:55.247Z,5.50
2019-05-10T16:33:32.233Z,7.00
2019-05-10T16:35:12.636Z,6.20
2019-05-10T16:36:47.870Z,6.20
2019-05-10T16:38:24.727Z,6.83
2019-05-10T16:40:02.051Z,6.30
2019-05-10T16:41:39.023Z,6.17
2019-05-10T16:43:22.131Z,5.90
2019-05-10T16:44:54.216Z,5.90
2019-05-10T16:46:30.951Z,5.20
2019-05-10T16:48:08.037Z,5.60
2019-05-10T16:49:47.599Z,5.70
2019-05-10T16:51:23.614Z,6.30
2019-05-10T16:53:05.790Z,5.80
2019-05-10T16:54:40.702Z,6.80
2019-05-10T16:56:18.927Z,7.10
2019-05-10T16:57:56.209Z,7.00
2019-05-10T16:59:35.258Z,7.27
2019-05-10T17:01:12.115Z,7.77
2019-05-10T17:02:48.768Z,10.43
2019-05-10T17:04:25.292Z,11.40
2019-05-10T17:06:04.200Z,9.90
2019-05-10T17:07:41.146Z,9.50
2019-05-10T17:09:19.703Z,8.67
2019-05-10T17:10:56.480Z,8.03
2019-05-10T17:12:33.390Z,7.63
2019-05-10T17:14:12.583Z,8.70
2019-05-10T17:15:48.382Z,8.90
2019-05-10T17:17:25.025Z,8.13
2019-05-10T17:19:02.078Z,9.87
2019-05-10T17:20:39.278Z,10.80
2019-05-10T17:22:16.048Z,12.57
2019-05-10T17:23:53.874Z,11.80
2019-05-10T17:25:30.575Z,13.80
2019-05-10T17:27:07.628Z,13.07
2019-05-10T17:28:44.170Z,12.63
2019-05-10T17:30:27.615Z,13.17
2019-05-10T17:31:59.917Z,13.00
2019-05-10T17:33:42.384Z,13.07
2019-05-10T17:35:15.889Z,13.47
2019-05-10T17:36:58.098Z,14.23
2019-05-10T17:38:31.802Z,16.07
2019-05-10T17:40:12.323Z,18.77
2019-05-10T17:41:49.053Z,15.77
2019-05-10T17:43:25.798Z,14.83
2019-05-10T17:45:04.520Z,12.40
2019-05-10T17:46:41.638Z,10.57
2019-05-10T17:48:20.836Z,9.67
2019-05-10T17:49:59.171Z,8.20
2019-05-10T17:51:36.034Z,8.67
2019-05-10T17:53:13.116Z,7.77
2019-05-10T17:54:49.673Z,7.70
2019-05-10T17:56:26.322Z,7.47
2019-05-10T17:58:02.839Z,8.07
2019-05-10T17:59:39.390Z,9.37
2019-05-10T18:01:15.919Z,15.17
2019-05-10T18:02:52.875Z,16.93
2019-05-10T18:04:29.574Z,19.23
2019-05-10T18:06:06.607Z,21.20
2019-05-10T18:07:42.994Z,20.03
2019-05-10T18:09:19.583Z,18.77
2019-05-10T18:11:04.099Z,13.87
2019-05-10T18:12:35.427Z,12.60
2019-05-10T18:14:12.475Z,15.70
2019-05-10T18:15:50.126Z,14.37
2019-05-10T18:17:27.641Z,15.70
2019-05-10T18:19:04.380Z,16.97
2019-05-10T18:20:44.313Z,13.13
2019-05-10T18:22:19.261Z,11.30
2019-05-10T18:23:58.081Z,9.93
2019-05-10T18:25:34.385Z,8.87
2019-05-10T18:27:13.707Z,9.07
2019-05-10T18:28:51.321Z,8.67
2019-05-10T18:30:27.985Z,8.67
2019-05-10T18:32:05.067Z,8.77
2019-05-10T18:33:44.267Z,8.67
2019-05-10T18:35:19.942Z,9.10
2019-05-10T18:36:56.452Z,8.93
2019-05-10T18:38:37.247Z,9.07
2019-05-10T18:40:12.584Z,9.87
2019-05-10T18:41:49.274Z,11.77
2019-05-10T18:43:26.893Z,12.00
2019-05-10T18:45:06.005Z,12.23
2019-05-10T18:46:42.633Z,14.33
2019-05-10T18:48:19.354Z,16.20
2019-05-10T18:49:56.013Z,17.80
2019-05-10T18:51:34.605Z,17.97
2019-05-10T18:53:11.555Z,17.97
2019-05-10T18:54:48.245Z,18.73
2019-05-10T18:56:30.592Z,17.93
2019-05-10T18:58:03.250Z,15.87
2019-05-10T18:59:45.225Z,14.10
2019-05-10T19:01:18.301Z,15.97
2019-05-10T19:02:57.073Z,17.43
2019-05-10T19:04:33.678Z,16.77
2019-05-10T19:06:13.121Z,14.03
2019-05-10T19:08:02.656Z,14.20
2019-05-10T19:09:28.289Z,13.40
2019-05-10T19:11:04.720Z,12.10
2019-05-10T19:12:41.992Z,12.63
2019-05-10T19:14:23.913Z,11.97
2019-05-10T19:15:58.757Z,12.77
2019-05-10T19:17:35.659Z,11.80
2019-05-10T19:19:12.479Z,11.93
2019-05-10T19:20:53.518Z,11.13
2019-05-10T19:22:27.769Z,11.07
2019-05-10T19:24:04.399Z,10.77
2019-05-10T19:25:45.399Z,12.17
2019-05-10T19:27:19.504Z,10.67
2019-05-10T19:28:58.892Z,11.10
2019-05-10T19:30:34.302Z,11.37
2019-05-10T19:32:18.360Z,12.40
2019-05-10T19:33:49.402Z,13.10
2019-05-10T19:35:29.709Z,12.63
2019-05-10T19:37:04.491Z,12.97
2019-05-10T19:38:41.253Z,14.63
2019-05-10T19:40:18.058Z,15.03
2019-05-10T19:42:03.083Z,15.97
2019-05-10T19:43:33.195Z,17.20
2019-05-10T19:45:12.958Z,20.40
2019-05-10T19:46:48.709Z,23.50
2019-05-10T19:48:29.429Z,21.37
2019-05-10T19:50:06.785Z,21.10
2019-05-10T19:51:48.380Z,20.27
2019-05-10T19:53:22.144Z,19.93
2019-05-10T19:54:58.797Z,18.47
2019-05-10T19:56:36.893Z,17.37
2019-05-10T19:58:13.959Z,16.07
2019-05-10T19:59:50.509Z,15.57
2019-05-10T20:01:27.328Z,16.30
2019-05-10T20:03:04.348Z,17.50
2019-05-10T20:04:40.983Z,18.43
2019-05-10T20:06:17.528Z,20.97
2019-05-10T20:07:54.483Z,20.53
2019-05-10T20:09:31.165Z,21.73
2019-05-10T20:11:07.912Z,21.73
2019-05-10T20:12:44.574Z,22.53
2019-05-10T20:14:20.703Z,20.37
2019-05-10T20:16:01.109Z,18.70
2019-05-10T20:17:36.042Z,19.93
2019-05-10T20:19:13.087Z,18.67
2019-05-10T20:20:50.833Z,18.00
2019-05-10T20:22:29.518Z,17.60
2019-05-10T20:24:06.734Z,18.27
2019-05-10T20:25:43.432Z,17.97
2019-05-10T20:27:20.591Z,17.53
2019-05-10T20:28:57.304Z,18.03
2019-05-10T20:30:33.959Z,16.20
2019-05-10T20:32:10.110Z,14.63
2019-05-10T20:33:46.987Z,13.93
2019-05-10T20:35:24.011Z,13.43
2019-05-10T20:37:00.877Z,12.80
2019-05-10T20:38:38.028Z,12.47
2019-05-10T20:40:15.633Z,11.67
2019-05-10T20:41:52.239Z,12.03
2019-05-10T20:43:28.883Z,11.30
2019-05-10T20:45:08.046Z,12.10
2019-05-10T20:46:44.235Z,11.97
2019-05-10T20:48:20.885Z,12.30
2019-05-10T20:49:57.984Z,13.00
2019-05-10T20:51:34.538Z,12.97
2019-05-10T20:53:11.272Z,14.70
2019-05-10T20:54:47.983Z,15.43
2019-05-10T20:56:24.623Z,14.37
2019-05-10T20:58:01.203Z,15.27
2019-05-10T20:59:37.741Z,14.73
2019-05-10T21:01:14.461Z,13.93
2019-05-10T21:02:50.686Z,15.00
2019-05-10T21:04:27.707Z,14.17
2019-05-10T21:06:04.471Z,17.63